Time;durP1;ratioP1;P1;durP2;ratioP2;P2;SDS_P1;SDS_P2;PMS_P1;PMS_P2;Temp;Humidity;BMP_temperature;BMP_pressure;BME280_temperature;BME280_humidity;BME280_pressure;Samples;Min_cycle;Max_cycle;Signal;HPM_P1;HPM_P2
2023/02/21 02:14:55;;;;;;;;;;;;;;;14.39;45.01;100447.19;4946145;28;98258;-68
2023/02/21 02:17:33;;;;;;;;;;;;;;;14.40;45.47;100436.03;4934529;28;98279;-66
2023/02/21 02:20:30;;;;;;;;;;;;;;;14.38;45.09;100432.00;4933165;28;102883;-65
2023/02/21 02:23:21;;;;;;;;;;;;;;;14.39;45.21;100434.44;4943331;28;98167;-67
2023/02/21 02:26:13;;;;;;;;;;;;;;;14.41;45.50;100426.00;4937336;28;98355;-68
2023/02/21 02:29:06;;;;;;;;;;;;;;;14.48;45.34;100419.09;4946765;28;99568;-67
2023/02/21 02:31:49;;;;;;;;;;;;;;;14.57;45.39;100413.03;4946392;28;99082;-67
2023/02/21 02:34:37;;;;;;;;;;;;;;;14.65;45.16;100417.78;4948078;28;98496;-66
2023/02/21 02:37:28;;;;;;;;;;;;;;;14.70;45.06;100421.25;4944063;28;99939;-68
2023/02/21 02:40:13;;;;;;;;;;;;;;;14.76;45.36;100421.16;4937098;28;98119;-67
2023/02/21 02:42:53;;;;;;;;;;;;;;;14.79;45.17;100415.13;4946098;28;98351;-67
2023/02/21 02:45:39;;;;;;;;;;;;;;;14.81;45.38;100419.16;4938224;28;98184;-66
2023/02/21 02:48:11;;;;;;;;;;;;;;;14.83;45.34;100419.66;4938774;28;113365;-67
2023/02/21 02:50:37;;;;;;;;;;;;;;;14.85;45.30;100414.75;4933622;28;126378;-68
2023/02/21 02:53:03;;;;;;;;;;;;;;;14.88;45.44;100422.28;4917168;28;98023;-67
2023/02/21 02:55:33;;;;;;;;;;;;;;;14.90;45.45;100405.72;4931083;28;98884;-68
2023/02/21 02:57:59;;;;;;;;;;;;;;;14.91;45.53;100420.91;4932971;28;106469;-68
2023/02/21 03:00:25;;;;;;;;;;;;;;;14.91;45.54;100412.75;4920145;28;104303;-68
2023/02/21 03:03:35;;;;;;;;;;;;;;;14.92;45.16;100409.75;4938651;28;116444;-67
2023/02/21 03:06:35;;;;;;;;;;;;;;;14.93;45.57;100405.13;4931112;28;98675;-68
2023/02/21 03:09:55;;;;;;;;;;;;;;;14.91;45.27;100397.28;4949533;28;98469;-68
2023/02/21 03:12:52;;;;;;;;;;;;;;;14.93;45.49;100394.25;4934326;28;111896;-68
2023/02/21 03:15:20;;;;;;;;;;;;;;;14.92;45.23;100392.66;4938726;28;98040;-68
2023/02/21 03:17:55;;;;;;;;;;;;;;;14.91;45.50;100386.44;4950670;28;98729;-67
2023/02/21 03:20:21;;;;;;;;;;;;;;;14.92;45.30;100395.38;4948811;28;121798;-68
2023/02/21 03:22:47;;;;;;;;;;;;;;;14.91;45.38;100391.84;4934803;28;98413;-68
2023/02/21 03:25:13;;;;;;;;;;;;;;;14.91;45.42;100393.75;4933608;28;114814;-67
2023/02/21 03:27:39;;;;;;;;;;;;;;;14.90;45.46;100382.09;4933556;28;99694;-69
2023/02/21 03:30:05;;;;;;;;;;;;;;;14.89;45.26;100391.34;4934380;28;119941;-67
2023/02/21 03:32:39;;;;;;;;;;;;;;;14.89;45.53;100394.03;4951432;28;126535;-67
2023/02/21 03:35:05;;;;;;;;;;;;;;;14.90;45.43;100384.03;4918799;28;101492;-66
2023/02/21 03:37:32;;;;;;;;;;;;;;;14.90;45.25;100381.31;4935699;28;104664;-67
2023/02/21 03:39:58;;;;;;;;;;;;;;;14.90;45.56;100384.81;4939341;28;98124;-66
2023/02/21 03:42:24;;;;;;;;;;;;;;;14.88;45.46;100378.88;4921085;28;110243;-67
2023/02/21 03:44:50;;;;;;;;;;;;;;;14.89;45.63;100383.19;4950529;28;126782;-67
2023/02/21 03:47:16;;;;;;;;;;;;;;;14.89;45.23;100375.06;4923588;28;98065;-67
2023/02/21 03:49:42;;;;;;;;;;;;;;;14.89;45.59;100376.97;4923625;28;127705;-67
2023/02/21 03:52:12;;;;;;;;;;;;;;;14.88;45.40;100362.59;4950160;28;98633;-67
2023/02/21 03:54:38;;;;;;;;;;;;;;;14.88;45.39;100372.66;4939870;28;98552;-69
2023/02/21 03:57:05;;;;;;;;;;;;;;;14.88;45.53;100367.22;4965699;27;98164;-67
2023/02/21 03:59:30;;;;;;;;;;;;;;;14.86;45.44;100372.97;4920142;28;98499;-67
2023/02/21 04:01:56;;;;;;;;;;;;;;;14.87;45.39;100373.75;4923843;28;128891;-67
2023/02/21 04:04:22;;;;;;;;;;;;;;;14.88;45.44;100364.50;4923043;28;97835;-68
2023/02/21 04:06:48;;;;;;;;;;;;;;;14.86;45.30;100362.09;4936842;28;112462;-67
2023/02/21 04:09:14;;;;;;;;;;;;;;;14.86;45.67;100364.81;4936259;28;110153;-67
2023/02/21 04:11:44;;;;;;;;;;;;;;;14.87;45.31;100362.91;4936324;28;108086;-67
2023/02/21 04:14:10;;;;;;;;;;;;;;;14.86;45.26;100375.66;4939958;28;119218;-67
2023/02/21 04:16:36;;;;;;;;;;;;;;;14.87;45.48;100374.56;4923913;28;113658;-67
2023/02/21 04:19:02;;;;;;;;;;;;;;;14.87;45.30;100377.28;4939655;28;106025;-67
2023/02/21 04:21:28;;;;;;;;;;;;;;;14.88;45.57;100378.88;4933359;28;98100;-67
2023/02/21 04:23:54;;;;;;;;;;;;;;;14.87;45.31;100379.97;4936504;28;127839;-68
2023/02/21 04:26:20;;;;;;;;;;;;;;;14.87;45.41;100384.63;4923927;28;98117;-68
2023/02/21 04:28:46;;;;;;;;;;;;;;;14.87;45.54;100373.75;4922543;28;98077;-67
2023/02/21 04:31:14;;;;;;;;;;;;;;;14.88;45.48;100381.59;4934441;28;98272;-67
2023/02/21 04:33:40;;;;;;;;;;;;;;;14.88;45.38;100384.31;4937149;28;98679;-67
2023/02/21 04:36:06;;;;;;;;;;;;;;;14.89;45.29;100374.25;4938430;28;97995;-67
2023/02/21 04:38:32;;;;;;;;;;;;;;;14.88;45.24;100378.88;4955630;28;112633;-67
2023/02/21 04:40:58;;;;;;;;;;;;;;;14.88;45.25;100381.59;4923904;28;98078;-67
2023/02/21 04:43:24;;;;;;;;;;;;;;;14.90;45.23;100384.03;4951288;28;127207;-67
2023/02/21 04:45:50;;;;;;;;;;;;;;;14.89;45.51;100363.41;4934771;28;112244;-67
2023/02/21 04:48:16;;;;;;;;;;;;;;;14.91;45.19;100372.06;4953921;28;128552;-67
2023/02/21 04:50:42;;;;;;;;;;;;;;;14.91;45.23;100375.56;4952729;28;98109;-67
2023/02/21 04:53:08;;;;;;;;;;;;;;;14.90;45.50;100365.03;4953822;28;128498;-67
2023/02/21 04:55:34;;;;;;;;;;;;;;;14.91;45.22;100363.91;4926383;28;114718;-67
2023/02/21 04:58:00;;;;;;;;;;;;;;;14.91;45.31;100375.56;4924052;28;128984;-67
2023/02/21 05:00:26;;;;;;;;;;;;;;;14.92;45.33;100379.09;4961453;27;120664;-67
2023/02/21 05:02:52;;;;;;;;;;;;;;;14.91;45.43;100378.28;4939540;28;100149;-67
2023/02/21 05:05:17;;;;;;;;;;;;;;;14.91;45.21;100383.72;4919913;28;102364;-67
2023/02/21 05:07:43;;;;;;;;;;;;;;;14.93;45.41;100380.69;4937259;28;120391;-67
2023/02/21 05:10:10;;;;;;;;;;;;;;;14.92;45.50;100382.59;4922449;28;128433;-67
2023/02/21 05:12:38;;;;;;;;;;;;;;;14.93;45.40;100392.38;4951173;28;98175;-67
2023/02/21 05:15:04;;;;;;;;;;;;;;;14.93;45.42;100392.38;4924298;28;98016;-67
2023/02/21 05:17:30;;;;;;;;;;;;;;;14.94;45.48;100398.59;4948746;28;98346;-67
2023/02/21 05:19:56;;;;;;;;;;;;;;;14.94;45.30;100393.19;4921706;28;129056;-66
2023/02/21 05:22:22;;;;;;;;;;;;;;;14.95;45.39;100389.34;4937612;28;128953;-67
2023/02/21 05:24:48;;;;;;;;;;;;;;;14.95;45.32;100390.16;4925026;28;109758;-67
2023/02/21 05:27:16;;;;;;;;;;;;;;;14.95;45.55;100398.28;4940283;28;98602;-67
2023/02/21 05:29:46;;;;;;;;;;;;;;;14.96;45.50;100399.91;4921921;28;99811;-67
2023/02/21 05:32:12;;;;;;;;;;;;;;;14.97;45.48;100398.81;4951127;28;99773;-68
2023/02/21 05:34:40;;;;;;;;;;;;;;;14.97;45.67;100395.28;4937218;28;105494;-67
2023/02/21 05:37:06;;;;;;;;;;;;;;;14.96;45.49;100397.19;4934347;28;98063;-67
2023/02/21 05:39:31;;;;;;;;;;;;;;;14.97;45.12;100412.38;4936748;28;101276;-68
2023/02/21 05:41:57;;;;;;;;;;;;;;;14.97;45.38;100411.56;4951445;28;120899;-68
2023/02/21 05:44:23;;;;;;;;;;;;;;;14.97;45.59;100404.25;4923216;28;110821;-67
2023/02/21 05:46:49;;;;;;;;;;;;;;;14.97;45.55;100406.97;4934765;28;127795;-67
2023/02/21 05:49:15;;;;;;;;;;;;;;;14.97;45.40;100412.38;4922061;28;130939;-67
2023/02/21 05:51:42;;;;;;;;;;;;;;;14.98;45.34;100399.63;4935522;28;128142;-66
2023/02/21 05:54:08;;;;;;;;;;;;;;;14.97;45.35;100412.38;4935445;28;98199;-68
2023/02/21 05:56:41;;;;;;;;;;;;;;;14.96;45.26;100404.53;4934766;28;99593;-68
2023/02/21 05:59:07;;;;;;;;;;;;;;;14.97;45.67;100420.53;4922369;28;99650;-66
2023/02/21 06:01:33;;;;;;;;;;;;;;;14.97;45.42;100414.28;4934527;28;98537;-67
2023/02/21 06:03:59;;;;;;;;;;;;;;;14.96;45.27;100429.75;4943594;28;110914;-67
2023/02/21 06:06:25;;;;;;;;;;;;;;;14.96;45.67;100426.25;4931054;28;130091;-67
2023/02/21 06:08:51;;;;;;;;;;;;;;;14.97;45.40;100433.28;4935967;28;109354;-68
2023/02/21 06:11:29;;;;;;;;;;;;;;;14.97;45.40;100428.66;4923624;28;105632;-67
2023/02/21 06:13:56;;;;;;;;;;;;;;;14.95;45.47;100430.88;4939681;28;98028;-67
2023/02/21 06:16:22;;;;;;;;;;;;;;;14.95;45.33;100425.44;4933897;28;99728;-67
2023/02/21 06:18:51;;;;;;;;;;;;;;;14.95;45.36;100439.00;4935322;28;128029;-67
2023/02/21 06:21:17;;;;;;;;;;;;;;;14.96;45.51;100442.53;4921891;28;98080;-67
2023/02/21 06:23:43;;;;;;;;;;;;;;;14.96;45.45;100440.59;4936616;28;99479;-67
2023/02/21 06:26:09;;;;;;;;;;;;;;;14.96;45.39;100451.47;4920034;28;129928;-66
2023/02/21 06:28:35;;;;;;;;;;;;;;;14.97;45.41;100450.38;4940024;28;98626;-67
2023/02/21 06:31:02;;;;;;;;;;;;;;;14.97;45.33;100450.38;4937502;28;128508;-67
2023/02/21 06:33:28;;;;;;;;;;;;;;;14.97;45.32;100453.09;4930542;28;102390;-67
2023/02/21 06:35:54;;;;;;;;;;;;;;;14.98;45.46;100456.63;4922773;28;108725;-67
2023/02/21 06:38:20;;;;;;;;;;;;;;;14.98;45.62;100456.63;4936974;28;128840;-68
2023/02/21 06:40:46;;;;;;;;;;;;;;;14.97;45.43;100460.41;4933079;28;107674;-67
2023/02/21 06:43:13;;;;;;;;;;;;;;;14.97;45.40;100463.97;4936398;28;98884;-68
2023/02/21 06:45:39;;;;;;;;;;;;;;;14.98;45.33;100465.56;4939060;28;99314;-66
2023/02/21 06:48:06;;;;;;;;;;;;;;;14.98;45.62;100468.28;4934271;28;127339;-66
2023/02/21 06:50:33;;;;;;;;;;;;;;;14.99;45.62;100471.78;4952750;28;97926;-68
2023/02/21 06:52:59;;;;;;;;;;;;;;;15.00;45.26;100472.59;4936557;28;98066;-67
2023/02/21 06:55:25;;;;;;;;;;;;;;;15.01;45.47;100466.06;4935352;28;114798;-67
2023/02/21 06:57:50;;;;;;;;;;;;;;;15.02;45.60;100459.53;4920349;28;100321;-67
2023/02/21 07:00:17;;;;;;;;;;;;;;;15.03;45.62;100459.25;4932772;28;126825;-67
2023/02/21 07:02:43;;;;;;;;;;;;;;;15.03;45.20;100467.38;4920566;28;98004;-67
2023/02/21 07:05:09;;;;;;;;;;;;;;;15.02;45.49;100467.69;4954129;28;98032;-67
2023/02/21 07:07:35;;;;;;;;;;;;;;;15.02;45.34;100482.06;4920725;28;118471;-67
2023/02/21 07:10:01;;;;;;;;;;;;;;;15.02;45.41;100492.91;4936126;28;128075;-67
2023/02/21 07:12:27;;;;;;;;;;;;;;;15.03;45.48;100499.94;4938883;28;97993;-67
2023/02/21 07:14:53;;;;;;;;;;;;;;;15.06;45.47;100504.78;4940098;28;128537;-66
2023/02/21 07:17:19;;;;;;;;;;;;;;;15.06;45.48;100491.22;4939373;28;100234;-67
2023/02/21 07:19:45;;;;;;;;;;;;;;;15.05;45.30;100488.78;4924294;28;127644;-67
2023/02/21 07:22:11;;;;;;;;;;;;;;;15.05;45.66;100499.66;4922974;28;98120;-67
2023/02/21 07:24:37;;;;;;;;;;;;;;;15.05;45.33;100499.66;4938051;28;127993;-68
2023/02/21 07:27:03;;;;;;;;;;;;;;;15.02;45.24;100500.25;4923313;28;128034;-66
2023/02/21 07:29:29;;;;;;;;;;;;;;;15.02;45.27;100503.78;4944745;28;111466;-66
2023/02/21 07:31:56;;;;;;;;;;;;;;;15.03;45.30;100505.38;4954694;28;111340;-66
2023/02/21 07:34:22;;;;;;;;;;;;;;;15.05;45.55;100514.06;4928090;28;98312;-66
2023/02/21 07:36:49;;;;;;;;;;;;;;;15.06;45.31;100504.00;4938912;28;127171;-66
2023/02/21 07:39:15;;;;;;;;;;;;;;;15.05;45.29;100505.91;4938879;28;99535;-67
2023/02/21 07:41:41;;;;;;;;;;;;;;;15.05;45.56;100508.63;4952999;28;98101;-66
2023/02/21 07:44:07;;;;;;;;;;;;;;;15.06;45.58;100507.50;4955627;28;127887;-66
2023/02/21 07:46:33;;;;;;;;;;;;;;;15.08;45.27;100509.91;4936963;28;98448;-67
2023/02/21 07:48:59;;;;;;;;;;;;;;;15.09;45.31;100516.94;4925393;28;98457;-67
2023/02/21 07:51:29;;;;;;;;;;;;;;;15.09;45.29;100506.94;4930831;28;97907;-66
2023/02/21 07:53:55;;;;;;;;;;;;;;;15.11;45.29;100517.47;4950384;28;98230;-66
2023/02/21 07:56:21;;;;;;;;;;;;;;;15.11;45.61;100522.91;4936377;28;98080;-67
2023/02/21 07:58:47;;;;;;;;;;;;;;;15.09;45.37;100523.22;4937938;28;114957;-68
2023/02/21 08:01:13;;;;;;;;;;;;;;;15.10;45.41;100534.88;4936881;28;111517;-68
2023/02/21 08:03:39;;;;;;;;;;;;;;;15.12;45.25;100540.81;4951139;28;128839;-67
2023/02/21 08:06:05;;;;;;;;;;;;;;;15.11;45.35;100548.13;4953349;28;98475;-66
2023/02/21 08:08:31;;;;;;;;;;;;;;;15.12;45.38;100544.31;4961461;27;112796;-68
2023/02/21 08:10:57;;;;;;;;;;;;;;;15.11;45.51;100541.91;4941477;28;98116;-66
2023/02/21 08:13:23;;;;;;;;;;;;;;;15.12;45.53;100552.47;4924896;28;128034;-66
2023/02/21 08:21:01;;;;;;;;;;;;;;;15.14;45.08;100554.91;5694311;22;98462;-66
2023/02/21 08:23:27;;;;;;;;;;;;;;;15.13;45.65;100540.53;4958318;28;97894;-67
2023/02/21 08:25:53;;;;;;;;;;;;;;;15.16;45.30;100555.41;4967122;28;97581;-67
2023/02/21 08:28:20;;;;;;;;;;;;;;;15.19;45.11;100562.97;4972657;28;98254;-67
2023/02/21 08:30:47;;;;;;;;;;;;;;;15.22;45.40;100557.75;4974927;28;100071;-67
2023/02/21 08:33:14;;;;;;;;;;;;;;;15.26;45.48;100557.97;4975898;28;98021;-67
2023/02/21 08:35:41;;;;;;;;;;;;;;;15.30;45.38;100558.97;4967152;28;97495;-67
2023/02/21 08:38:09;;;;;;;;;;;;;;;15.31;45.11;100554.34;4946293;28;97841;-67
2023/02/21 08:40:35;;;;;;;;;;;;;;;15.32;45.07;100558.66;4947585;28;97704;-67
2023/02/21 08:43:01;;;;;;;;;;;;;;;15.35;45.46;100572.47;4978715;28;97848;-67
2023/02/21 08:45:28;;;;;;;;;;;;;;;15.36;45.50;100567.84;4962372;28;99113;-67
2023/02/21 08:47:55;;;;;;;;;;;;;;;15.36;45.50;100576.78;4956625;28;97463;-67
2023/02/21 08:50:22;;;;;;;;;;;;;;;15.37;45.49;100570.28;4945743;28;97909;-67
2023/02/21 08:52:48;;;;;;;;;;;;;;;15.39;45.34;100573.50;4945730;28;98088;-67
2023/02/21 08:55:15;;;;;;;;;;;;;;;15.42;45.24;100578.34;4961958;28;97793;-67
2023/02/21 08:57:41;;;;;;;;;;;;;;;15.47;45.34;100574.72;4946208;28;97993;-67
2023/02/21 09:00:09;;;;;;;;;;;;;;;15.50;45.32;100574.13;4964142;28;97875;-68
2023/02/21 09:02:39;;;;;;;;;;;;;;;15.51;45.33;100583.88;4952298;28;97691;-67
2023/02/21 09:05:14;;;;;;;;;;;;;;;15.55;45.25;100584.09;4975182;28;99444;-66
2023/02/21 09:07:40;;;;;;;;;;;;;;;15.57;45.37;100581.91;4965824;28;97760;-67
2023/02/21 09:10:08;;;;;;;;;;;;;;;15.58;45.22;100591.66;4945885;28;98850;-68
2023/02/21 09:12:35;;;;;;;;;;;;;;;15.60;45.22;100600.31;4974621;28;98096;-66
2023/02/21 09:15:02;;;;;;;;;;;;;;;15.65;45.43;100584.78;4947740;28;97568;-67
2023/02/21 09:17:27;;;;;;;;;;;;;;;15.69;45.35;100588.50;4962860;28;98022;-67
2023/02/21 09:19:54;;;;;;;;;;;;;;;15.70;45.23;100579.25;4962614;28;98840;-67
2023/02/21 09:22:21;;;;;;;;;;;;;;;15.75;45.25;100591.13;4958839;28;98800;-67
2023/02/21 09:24:47;;;;;;;;;;;;;;;15.78;45.18;100594.06;4961923;28;98792;-68
2023/02/21 09:27:16;;;;;;;;;;;;;;;15.82;45.16;100588.84;4944584;28;99075;-68
2023/02/21 09:29:43;;;;;;;;;;;;;;;15.86;45.09;100590.66;4948943;28;98685;-67
2023/02/21 09:32:10;;;;;;;;;;;;;;;15.90;45.24;100599.81;4962120;28;97679;-67
2023/02/21 09:34:36;;;;;;;;;;;;;;;15.94;45.21;100598.09;4958539;28;97825;-67
2023/02/21 09:37:05;;;;;;;;;;;;;;;15.98;45.04;100594.78;4962051;28;97479;-67
2023/02/21 09:39:32;;;;;;;;;;;;;;;15.97;45.16;100594.00;4975406;28;97640;-67
2023/02/21 09:41:58;;;;;;;;;;;;;;;16.03;44.98;100595.50;4963143;28;97831;-67
2023/02/21 09:44:26;;;;;;;;;;;;;;;16.03;45.17;100598.22;4964904;28;98588;-67
2023/02/21 09:46:57;;;;;;;;;;;;;;;16.00;45.15;100600.75;4958515;28;97912;-67
2023/02/21 09:49:34;;;;;;;;;;;;;;;15.99;45.11;100602.63;4961190;28;97549;-68
2023/02/21 09:52:01;;;;;;;;;;;;;;;16.00;45.10;100603.47;4946492;28;99610;-68
2023/02/21 09:54:38;;;;;;;;;;;;;;;16.01;45.28;100599.63;4956021;28;97903;-68
2023/02/21 09:57:06;;;;;;;;;;;;;;;16.01;45.07;100605.06;4947863;28;98402;-67
2023/02/21 09:59:32;;;;;;;;;;;;;;;16.00;45.37;100606.19;4945572;28;97489;-67
2023/02/21 10:02:35;;;;;;;;;;;;;;;15.99;45.32;100610.00;4958201;28;99694;-67
2023/02/21 10:05:23;;;;;;;;;;;;;;;16.01;45.22;100605.88;4964171;28;98408;-67
2023/02/21 10:08:15;;;;;;;;;;;;;;;16.02;45.09;100617.56;4976481;28;97800;-67
2023/02/21 10:10:54;;;;;;;;;;;;;;;16.06;45.23;100607.69;4961318;28;98170;-67
2023/02/21 10:13:53;;;;;;;;;;;;;;;16.08;45.18;100594.63;4959283;28;97671;-67
2023/02/21 10:16:41;;;;;;;;;;;;;;;16.11;45.10;100616.56;4943742;28;98151;-67
2023/02/21 10:19:14;;;;;;;;;;;;;;;16.15;45.21;100614.03;4956863;28;97363;-67
2023/02/21 10:21:43;;;;;;;;;;;;;;;16.17;45.30;100620.00;4972069;28;97334;-67
2023/02/21 10:24:22;;;;;;;;;;;;;;;16.17;45.15;100609.91;4944533;28;97657;-67
2023/02/21 10:27:03;;;;;;;;;;;;;;;16.26;45.14;100618.19;4976403;28;97716;-67
2023/02/21 10:29:37;;;;;;;;;;;;;;;16.31;45.02;100615.38;4955743;28;99582;-66
2023/02/21 10:32:04;;;;;;;;;;;;;;;16.41;44.99;100609.72;4963241;28;97590;-67
2023/02/21 10:34:31;;;;;;;;;;;;;;;16.41;44.97;100617.06;4973789;28;97662;-67
2023/02/21 10:37:17;;;;;;;;;;;;;;;16.42;45.42;100615.97;4965536;28;97384;-67
2023/02/21 10:39:45;;;;;;;;;;;;;;;16.51;44.86;100619.59;4972887;28;97741;-67
2023/02/21 10:42:26;;;;;;;;;;;;;;;16.51;45.06;100610.63;4977205;28;98169;-67
2023/02/21 10:44:52;;;;;;;;;;;;;;;16.52;45.22;100610.31;4960240;28;97742;-66
2023/02/21 10:47:21;;;;;;;;;;;;;;;16.59;44.93;100610.72;4977734;28;98787;-67
2023/02/21 10:50:03;;;;;;;;;;;;;;;16.65;44.99;100611.41;4960105;28;97488;-66
2023/02/21 10:52:29;;;;;;;;;;;;;;;16.69;45.00;100609.69;4956821;28;97449;-67
2023/02/21 10:55:02;;;;;;;;;;;;;;;16.75;44.79;100618.59;4958020;28;97463;-66
2023/02/21 10:57:31;;;;;;;;;;;;;;;16.70;44.99;100616.75;4956975;28;116849;-67
2023/02/21 10:59:57;;;;;;;;;;;;;;;16.71;45.05;100615.66;4943964;28;97560;-67
2023/02/21 11:02:31;;;;;;;;;;;;;;;16.81;44.97;100603.75;4973627;28;97517;-67
2023/02/21 11:05:11;;;;;;;;;;;;;;;17.12;44.44;100598.44;4961067;28;98367;-67
2023/02/21 11:07:38;;;;;;;;;;;;;;;17.28;44.43;100602.41;4947385;28;97956;-67
2023/02/21 11:10:26;;;;;;;;;;;;;;;17.51;44.23;100589.59;4959694;28;97491;-67
2023/02/21 11:13:06;;;;;;;;;;;;;;;17.80;43.95;100610.16;4963105;28;98197;-66
2023/02/21 11:15:33;;;;;;;;;;;;;;;17.88;44.07;100604.78;4962258;28;97897;-68
2023/02/21 11:18:12;;;;;;;;;;;;;;;17.94;44.22;100602.72;4943704;28;97610;-67
2023/02/21 11:20:39;;;;;;;;;;;;;;;17.94;44.16;100602.72;4975953;28;97553;-68
2023/02/21 11:23:16;;;;;;;;;;;;;;;18.05;44.09;100601.31;4958449;28;97911;-67
2023/02/21 11:25:43;;;;;;;;;;;;;;;18.24;43.99;100589.38;4970203;28;97834;-67
2023/02/21 11:28:11;;;;;;;;;;;;;;;18.27;44.08;100594.97;4945535;28;97582;-68
2023/02/21 11:30:50;;;;;;;;;;;;;;;18.27;44.30;100592.25;4974931;28;97955;-68
2023/02/21 11:33:19;;;;;;;;;;;;;;;18.36;44.08;100590.38;4974860;28;97692;-68
2023/02/21 11:35:50;;;;;;;;;;;;;;;18.50;44.06;100597.63;4946499;28;98001;-67
2023/02/21 11:38:43;;;;;;;;;;;;;;;18.69;44.01;100589.16;4962719;28;98409;-68
2023/02/21 11:41:26;;;;;;;;;;;;;;;18.83;43.92;100585.19;4957798;28;98721;-68
2023/02/21 11:43:53;;;;;;;;;;;;;;;18.82;43.92;100571.84;4961767;28;98822;-68
2023/02/21 11:46:22;;;;;;;;;;;;;;;19.06;43.74;100574.09;4944252;28;98047;-68
2023/02/21 11:49:16;;;;;;;;;;;;;;;19.22;43.65;100579.91;4977219;28;97985;-69
2023/02/21 11:52:07;;;;;;;;;;;;;;;19.25;43.75;100576.53;4977225;28;98219;-69
2023/02/21 11:54:33;;;;;;;;;;;;;;;19.22;44.04;100574.44;4964315;28;97911;-68
2023/02/21 11:57:12;;;;;;;;;;;;;;;19.24;44.08;100577.66;4943933;28;97824;-69
2023/02/21 12:00:15;;;;;;;;;;;;;;;19.10;44.34;100569.63;4955944;28;99644;-68
2023/02/21 12:02:47;;;;;;;;;;;;;;;19.03;44.33;100572.03;4994878;28;97509;-68
2023/02/21 12:05:50;;;;;;;;;;;;;;;18.89;44.51;100574.91;4978093;28;97247;-68
2023/02/21 12:08:38;;;;;;;;;;;;;;;18.78;44.69;100579.88;4975751;28;99221;-68
2023/02/21 12:11:19;;;;;;;;;;;;;;;18.58;44.79;100577.72;4976582;28;97639;-68
2023/02/21 12:13:48;;;;;;;;;;;;;;;18.45;44.98;100584.94;4980134;28;97516;-68
2023/02/21 12:16:27;;;;;;;;;;;;;;;18.38;44.91;100577.19;4978210;28;97752;-68
2023/02/21 12:19:22;;;;;;;;;;;;;;;18.29;45.01;100570.13;4965082;28;98119;-69
2023/02/21 12:21:57;;;;;;;;;;;;;;;18.20;45.19;100578.28;4946397;28;99431;-69
2023/02/21 12:24:59;;;;;;;;;;;;;;;18.08;45.23;100583.53;4977587;28;97641;-68
2023/02/21 12:27:56;;;;;;;;;;;;;;;17.96;45.32;100583.28;4965960;28;97540;-68
2023/02/21 12:30:29;;;;;;;;;;;;;;;17.86;45.25;100568.81;4962985;28;97477;-68
2023/02/21 12:33:23;;;;;;;;;;;;;;;17.80;45.32;100566.53;4947064;28;97866;-68
2023/02/21 12:36:05;;;;;;;;;;;;;;;17.86;45.31;100565.28;4980237;28;97744;-68
2023/02/21 12:38:50;;;;;;;;;;;;;;;17.81;45.33;100562.72;4996841;28;97624;-67
2023/02/21 12:41:51;;;;;;;;;;;;;;;17.80;45.32;100566.53;4978786;28;97803;-68
2023/02/21 12:44:18;;;;;;;;;;;;;;;17.71;45.31;100569.19;4978593;28;97814;-68
2023/02/21 12:46:55;;;;;;;;;;;;;;;17.71;45.35;100568.41;4978608;28;97619;-68
2023/02/21 12:49:55;;;;;;;;;;;;;;;17.61;45.43;100570.28;4964020;28;97422;-68
2023/02/21 12:52:37;;;;;;;;;;;;;;;17.53;45.44;100567.50;4975043;28;98838;-68
2023/02/21 12:55:15;;;;;;;;;;;;;;;17.47;45.38;100558.63;4976136;28;99348;-68
2023/02/21 12:57:54;;;;;;;;;;;;;;;17.41;45.50;100557.97;4947979;28;97773;-68
2023/02/21 13:00:30;;;;;;;;;;;;;;;17.38;45.65;100563.22;4978237;28;97502;-68
2023/02/21 13:03:29;;;;;;;;;;;;;;;17.35;45.45;100559.19;4962717;28;97870;-68
2023/02/21 13:06:09;;;;;;;;;;;;;;;17.33;45.49;100555.16;4961684;28;98066;-68
2023/02/21 13:08:44;;;;;;;;;;;;;;;17.31;45.44;100557.41;4962698;28;99078;-68
2023/02/21 13:11:26;;;;;;;;;;;;;;;17.31;45.46;100549.25;4978288;28;97617;-68
2023/02/21 13:13:52;;;;;;;;;;;;;;;17.29;45.51;100552.28;4963210;28;97783;-69
2023/02/21 13:16:19;;;;;;;;;;;;;;;17.31;45.49;100549.25;4945617;28;97590;-68
2023/02/21 13:18:58;;;;;;;;;;;;;;;17.29;45.35;100544.13;4960075;28;98314;-68
2023/02/21 13:21:39;;;;;;;;;;;;;;;17.30;45.33;100534.81;4977758;28;99249;-68
2023/02/21 13:24:42;;;;;;;;;;;;;;;17.24;45.60;100535.25;4992612;28;97735;-68
2023/02/21 13:27:33;;;;;;;;;;;;;;;17.23;45.58;100542.63;4978064;28;97892;-68
2023/02/21 13:30:22;;;;;;;;;;;;;;;17.21;45.34;100542.09;4958183;28;98922;-68
2023/02/21 13:32:54;;;;;;;;;;;;;;;17.18;45.36;100540.81;4960947;28;97820;-68
2023/02/21 13:35:32;;;;;;;;;;;;;;;17.13;45.45;100542.84;4948750;28;97642;-68
2023/02/21 13:37:59;;;;;;;;;;;;;;;17.11;45.68;100543.16;4964015;28;97780;-68
2023/02/21 13:40:31;;;;;;;;;;;;;;;17.11;45.54;100542.38;4961954;28;97641;-68
2023/02/21 13:43:12;;;;;;;;;;;;;;;17.07;45.71;100542.19;4964196;28;98496;-68
2023/02/21 13:45:38;;;;;;;;;;;;;;;17.05;45.59;100546.31;4964629;28;98082;-68
2023/02/21 13:48:07;;;;;;;;;;;;;;;17.03;45.74;100537.66;4971756;28;97464;-68
2023/02/21 13:50:33;;;;;;;;;;;;;;;16.98;45.79;100552.22;4980846;28;97406;-68
2023/02/21 13:53:32;;;;;;;;;;;;;;;16.94;45.67;100548.50;4981337;28;97731;-68
2023/02/21 13:56:07;;;;;;;;;;;;;;;16.92;45.71;100547.97;4963514;28;98147;-69
2023/02/21 13:58:43;;;;;;;;;;;;;;;16.87;45.69;100539.94;4978276;28;97777;-68
2023/02/21 14:01:28;;;;;;;;;;;;;;;16.83;45.81;100556.09;4960174;28;97838;-68
2023/02/21 14:03:56;;;;;;;;;;;;;;;16.81;45.90;100554.75;4977551;28;97607;-68
2023/02/21 14:06:28;;;;;;;;;;;;;;;16.80;45.76;100551.25;4960611;28;99284;-68
2023/02/21 14:09:11;;;;;;;;;;;;;;;16.80;45.88;100564.06;4946923;28;97700;-68
2023/02/21 14:11:43;;;;;;;;;;;;;;;16.80;45.66;100561.31;4942404;28;97747;-68
2023/02/21 14:14:25;;;;;;;;;;;;;;;16.78;45.81;100553.47;4940849;28;98019;-68
2023/02/21 14:16:59;;;;;;;;;;;;;;;16.75;45.85;100564.16;4962605;28;97914;-68
2023/02/21 14:19:29;;;;;;;;;;;;;;;16.73;45.73;100566.34;4973393;28;98403;-69
2023/02/21 14:22:22;;;;;;;;;;;;;;;16.71;45.86;100563.94;4952606;28;99124;-68
2023/02/21 14:24:52;;;;;;;;;;;;;;;16.71;45.58;100563.16;4959062;28;98162;-68
2023/02/21 14:27:17;;;;;;;;;;;;;;;16.73;45.79;100569.06;4938332;28;97888;-68
2023/02/21 14:30:08;;;;;;;;;;;;;;;16.75;45.76;100570.41;4975121;28;97763;-68
2023/02/21 14:32:40;;;;;;;;;;;;;;;16.73;45.62;100567.19;4973538;28;97854;-69
2023/02/21 14:35:17;;;;;;;;;;;;;;;16.71;45.83;100568.59;4940254;28;99512;-68
2023/02/21 14:37:59;;;;;;;;;;;;;;;16.70;45.87;100565.03;4958440;28;98843;-68
2023/02/21 14:40:31;;;;;;;;;;;;;;;16.68;45.87;100575.44;4955617;28;99768;-68
2023/02/21 14:43:18;;;;;;;;;;;;;;;16.66;45.83;100570.31;4972399;28;97825;-69
2023/02/21 14:46:06;;;;;;;;;;;;;;;16.68;45.74;100568.06;4953466;28;97905;-68
2023/02/21 14:48:58;;;;;;;;;;;;;;;16.69;45.70;100569.69;4972399;28;98054;-70
2023/02/21 14:52:08;;;;;;;;;;;;;;;16.68;45.69;100573.50;4945093;28;98178;-68
2023/02/21 14:55:15;;;;;;;;;;;;;;;16.75;45.70;100575.06;4944192;28;97780;-68
2023/02/21 14:58:10;;;;;;;;;;;;;;;16.81;45.74;100573.81;4988668;28;99986;-68
2023/02/21 15:01:06;;;;;;;;;;;;;;;16.88;45.63;100569.56;4961091;28;98333;-68
2023/02/21 15:03:42;;;;;;;;;;;;;;;16.96;45.64;100578.94;4956719;28;98097;-68
2023/02/21 15:06:21;;;;;;;;;;;;;;;17.02;45.66;100574.97;4952212;28;98021;-68
2023/02/21 15:08:50;;;;;;;;;;;;;;;17.07;45.76;100580.31;4938162;28;97811;-68
2023/02/21 15:11:29;;;;;;;;;;;;;;;17.09;45.57;100578.06;4939782;28;99126;-68
2023/02/21 15:14:21;;;;;;;;;;;;;;;17.14;45.66;100574.44;4958450;28;97995;-68
2023/02/21 15:16:52;;;;;;;;;;;;;;;17.17;45.59;100581.97;4958487;28;97895;-68
2023/02/21 15:19:36;;;;;;;;;;;;;;;17.18;45.36;100576.22;4972062;28;98884;-68
2023/02/21 15:22:21;;;;;;;;;;;;;;;17.18;45.69;100584.41;4968108;28;99911;-68